MM32 weather

Puerto Libertad North Airport
Sonora, Mexico

Public forecast

Using degrees Celsius for public forecast. Weather courtesy of forecast.io.

Closest aviation weather report (METAR) to Puerto Libertad North Airport

Closest report is (Old) Puerto PeƱasco Airport, 96.7 nm (179.1 km) NNW. Retrieved UTC (0 seconds ago):

Closest aviation forecast (TAF) to Puerto Libertad North Airport

Closest forecast is General Ignacio P. Garcia International Airport, 97.8 nm (181.1 km) ESE. Retrieved 2020/05/27 18:06 UTC (4 hours ago):

TAF MMHO 271658Z 2718/2818 26010KT P6SM SKC BECMG 2806/2807 08008KT